»·PEaware :: N75232 KAVX-KSAN

N75232 :: KAVX-KSAN

FLIGHT INFORMATION

Flight Status: Arrived
Operator: Privately registered:
United States
More flights under this callsign
Pilot: Daniel B. (28719)
Aircraft: CESSNA 172 SKYHAWK
(C172)
More flights by this aircraft type
Origin: KAVX Catalina
United States
Destination: KSAN San Diego Intl-Lindbergh
United States
More flights between these airports :: More routes between these airports
Route: +SXC V208 OCN V23 MZB
File this flight plan on PilotEdge
Remarks:
Altitude:
(Current/Filed)
5,000ft
Speed:
(Current/Filed)
115kts
Departed: 10-Aug-20 02:03 PM
Arrived: 10-Aug-20 03:12 PM
Distance/Time
Traveled:
74nm/1:08
Distance/Time
To Go:
Arrived

Flight Plot

Page will automatically refresh every two minutes.


Map Options




Map Legend


Flown Route
Filed Route
Departure Airport
Arrival Airport
Navaid (VOR, NDB)
Fix

Horizontal Profiles

Position Reports

Time Latitude Longitude Heading Altitude Ground
Speed
10-Aug-20 13:52 33.403948 -118.415158 146 1545ft 0kts
10-Aug-20 13:53 33.403948 -118.415158 146 1545ft 0kts
10-Aug-20 13:54 33.403948 -118.415158 146 1545ft 0kts
10-Aug-20 13:55 33.403948 -118.415158 146 1545ft 0kts
10-Aug-20 13:56 33.403948 -118.415158 146 1545ft 0kts
10-Aug-20 13:57 33.403948 -118.415158 146 1545ft 0kts
10-Aug-20 13:58 33.403948 -118.415158 146 1545ft 0kts
10-Aug-20 13:59 33.403948 -118.415158 146 1545ft 0kts
10-Aug-20 14:00 33.404933 -118.415018 18 1543ft 12kts
10-Aug-20 14:01 33.407166 -118.411431 29 1500ft 0kts
10-Aug-20 14:02 33.401338 -118.421513 232 1834ft 69kts
10-Aug-20 14:03 33.385074 -118.432946 188 2737ft 75kts
10-Aug-20 14:04 33.363551 -118.435724 188 2832ft 84kts
10-Aug-20 14:05 33.403948 -118.415158 146 1545ft 0kts
10-Aug-20 14:06 33.405469 -118.414332 53 1534ft 27kts
10-Aug-20 14:07 33.407172 -118.411447 37 1500ft 0kts
10-Aug-20 14:08 33.407174 -118.411446 38 1500ft 0kts
10-Aug-20 14:09 33.399738 -118.424179 231 1960ft 72kts
10-Aug-20 14:10 33.381910 -118.432069 183 2873ft 75kts
10-Aug-20 14:11 33.372270 -118.411953 95 3644ft 86kts
10-Aug-20 14:12 33.370072 -118.378456 101 3912ft 115kts
10-Aug-20 14:13 33.364513 -118.338852 101 3928ft 129kts
10-Aug-20 14:14 33.357287 -118.296294 105 3945ft 128kts
10-Aug-20 14:15 33.350718 -118.254430 100 3913ft 126kts
10-Aug-20 14:16 33.345115 -118.213313 101 3933ft 125kts
10-Aug-20 14:17 33.340162 -118.171862 100 3945ft 125kts
10-Aug-20 14:18 33.334792 -118.133568 100 4565ft 107kts
10-Aug-20 14:19 33.332235 -118.096293 102 4947ft 123kts
10-Aug-20 14:20 33.325965 -118.054603 102 4899ft 126kts
10-Aug-20 14:21 33.319879 -118.013899 101 4941ft 126kts
10-Aug-20 14:22 33.313603 -117.972463 102 4929ft 126kts
10-Aug-20 14:23 33.306950 -117.931074 98 4925ft 127kts
10-Aug-20 14:24 33.302736 -117.889284 102 4916ft 127kts
10-Aug-20 14:25 33.296674 -117.847929 98 4940ft 125kts
10-Aug-20 14:26 33.292697 -117.806047 99 4925ft 126kts
10-Aug-20 14:27 33.287991 -117.764179 100 4926ft 126kts
10-Aug-20 14:28 33.281277 -117.722941 104 4925ft 126kts
10-Aug-20 14:29 33.273409 -117.682065 102 4926ft 126kts
10-Aug-20 14:30 33.268322 -117.640415 101 4927ft 126kts
10-Aug-20 14:31 33.261795 -117.599142 103 4928ft 126kts
10-Aug-20 14:32 33.254563 -117.558016 99 4931ft 126kts
10-Aug-20 14:33 33.251232 -117.516029 96 4936ft 127kts
10-Aug-20 14:34 33.249368 -117.473826 97 4938ft 127kts
10-Aug-20 14:35 33.241768 -117.433011 106 4942ft 126kts
10-Aug-20 14:36 33.215698 -117.409272 156 4955ft 119kts
10-Aug-20 14:37 33.184985 -117.393696 162 4949ft 118kts
10-Aug-20 14:38 33.153130 -117.382836 165 4928ft 120kts
10-Aug-20 14:39 33.122043 -117.368608 162 4935ft 119kts
10-Aug-20 14:40 33.090823 -117.354560 164 4922ft 120kts
10-Aug-20 14:41 33.059284 -117.341767 164 4933ft 118kts
10-Aug-20 14:42 33.027889 -117.330657 172 4947ft 117kts
10-Aug-20 14:43 32.996974 -117.316407 161 4954ft 119kts
10-Aug-20 14:44 32.966121 -117.301798 161 4945ft 120kts
10-Aug-20 14:45 32.934524 -117.290254 163 4940ft 119kts
10-Aug-20 14:46 32.903389 -117.276523 165 4932ft 120kts
10-Aug-20 14:47 32.872305 -117.262738 147 4933ft 122kts
10-Aug-20 14:48 32.859674 -117.224949 106 4940ft 125kts
10-Aug-20 14:49 32.850337 -117.184968 107 4938ft 127kts
10-Aug-20 14:50 32.840559 -117.145329 107 4944ft 126kts
10-Aug-20 14:51 32.831603 -117.105039 107 4919ft 127kts
10-Aug-20 14:52 32.822232 -117.064840 109 4947ft 125kts
10-Aug-20 14:53 32.813820 -117.024630 107 4946ft 127kts
10-Aug-20 14:54 32.804699 -116.984293 106 4956ft 125kts
10-Aug-20 14:55 32.796394 -116.943841 107 4945ft 126kts
10-Aug-20 14:56 32.787722 -116.903167 106 4931ft 127kts
10-Aug-20 14:57 32.778463 -116.862983 108 4937ft 127kts
10-Aug-20 14:58 32.754459 -116.847206 194 4905ft 120kts
10-Aug-20 14:59 32.722694 -116.855475 194 4902ft 116kts
10-Aug-20 15:00 32.690654 -116.863908 196 4261ft 118kts
10-Aug-20 15:01 32.665414 -116.882377 245 3901ft 111kts
10-Aug-20 15:02 32.666587 -116.917039 290 3948ft 107kts
10-Aug-20 15:03 32.675888 -116.952130 278 3700ft 118kts
10-Aug-20 15:05 32.684355 -116.989385 287 3172ft 118kts
10-Aug-20 15:06 32.695045 -117.025429 282 2695ft 116kts
10-Aug-20 15:07 32.703285 -117.059718 284 2355ft 121kts
10-Aug-20 15:08 32.710233 -117.092175 286 1938ft 97kts
10-Aug-20 15:09 32.716834 -117.119564 289 1285ft 84kts
10-Aug-20 15:10 32.722836 -117.144684 289 808ft 87kts
10-Aug-20 15:11 32.729509 -117.171701 284 377ft 77kts
10-Aug-20 15:12 32.732972 -117.188085 243 16ft 12kts
10-Aug-20 15:13 32.732398 -117.188804 264 15ft 9kts
10-Aug-20 15:14 32.732281 -117.191171 271 15ft 0kts

Navigation Log

Ident Type
Flight plan parsing failed, navigation log unavailable